createdAt,value
2018-04-01T00:00:06.746Z,2.50
2018-04-01T00:02:33.825Z,2.50
2018-04-01T00:05:00.937Z,2.40
2018-04-01T00:07:28.028Z,2.40
2018-04-01T00:09:55.157Z,2.40
2018-04-01T00:12:22.280Z,2.40
2018-04-01T00:14:49.414Z,2.40
2018-04-01T00:17:16.502Z,2.40
2018-04-01T00:19:43.674Z,2.30
2018-04-01T00:22:10.750Z,2.30
2018-04-01T00:24:37.948Z,2.30
2018-04-01T00:27:05.066Z,2.30
2018-04-01T00:29:32.151Z,2.30
2018-04-01T00:31:59.271Z,2.20
2018-04-01T00:34:26.353Z,2.20
2018-04-01T00:36:53.480Z,2.20
2018-04-01T00:39:20.567Z,2.20
2018-04-01T00:41:47.684Z,2.20
2018-04-01T00:44:14.798Z,2.20
2018-04-01T00:46:42.692Z,2.20
2018-04-01T00:49:09.780Z,2.10
2018-04-01T00:51:36.908Z,2.20
2018-04-01T00:54:03.990Z,2.20
2018-04-01T00:56:31.117Z,2.20
2018-04-01T00:58:58.198Z,2.20
2018-04-01T01:01:25.323Z,2.20
2018-04-01T01:03:53.544Z,2.10
2018-04-01T01:06:20.631Z,2.10
2018-04-01T01:08:47.749Z,2.10
2018-04-01T01:11:14.826Z,2.10
2018-04-01T01:13:41.903Z,2.00
2018-04-01T01:16:09.034Z,2.00
2018-04-01T01:18:36.118Z,2.00
2018-04-01T01:21:03.218Z,1.90
2018-04-01T01:23:30.334Z,1.90
2018-04-01T01:25:57.414Z,1.80
2018-04-01T01:28:24.530Z,1.80
2018-04-01T01:30:52.386Z,1.70
2018-04-01T01:33:19.513Z,1.70
2018-04-01T01:35:46.586Z,1.60
2018-04-01T01:38:14.470Z,1.60
2018-04-01T01:40:41.590Z,1.60
2018-04-01T01:43:08.706Z,1.60
2018-04-01T01:45:35.857Z,1.60
2018-04-01T01:48:02.936Z,1.60
2018-04-01T01:50:30.053Z,1.50
2018-04-01T01:52:57.126Z,1.50
2018-04-01T01:55:24.293Z,1.40
2018-04-01T01:57:51.388Z,1.40
2018-04-01T02:00:18.518Z,1.40
2018-04-01T02:02:45.599Z,1.40
2018-04-01T02:05:12.699Z,1.40
2018-04-01T02:07:40.588Z,1.30
2018-04-01T02:10:07.668Z,1.30
2018-04-01T02:12:34.812Z,1.30
2018-04-01T02:15:01.894Z,1.30
2018-04-01T02:17:29.023Z,1.30
2018-04-01T02:19:56.098Z,1.30
2018-04-01T02:22:23.204Z,1.20
2018-04-01T02:24:50.309Z,1.10
2018-04-01T02:27:17.383Z,1.10
2018-04-01T02:29:44.506Z,1.00
2018-04-01T02:32:11.582Z,1.00
2018-04-01T02:34:38.693Z,1.10
2018-04-01T02:37:05.797Z,1.10
2018-04-01T02:39:32.991Z,1.10
2018-04-01T02:42:00.148Z,1.10
2018-04-01T02:44:27.264Z,1.10
2018-04-01T02:46:54.348Z,1.10
2018-04-01T02:49:21.481Z,1.10
2018-04-01T02:51:48.558Z,1.10
2018-04-01T02:54:15.678Z,1.20
2018-04-01T02:56:42.767Z,1.20
2018-04-01T02:59:09.889Z,1.20
2018-04-01T03:01:37.003Z,1.20
2018-04-01T03:04:04.079Z,1.30
2018-04-01T03:06:31.191Z,1.30
2018-04-01T03:08:58.309Z,1.30
2018-04-01T03:11:26.155Z,1.30
2018-04-01T03:13:53.279Z,1.30
2018-04-01T03:16:20.390Z,1.30
2018-04-01T03:18:48.325Z,1.30
2018-04-01T03:21:15.446Z,1.30
2018-04-01T03:23:42.519Z,1.30
2018-04-01T03:26:09.607Z,1.30
2018-04-01T03:28:37.501Z,1.30
2018-04-01T03:31:04.575Z,1.30
2018-04-01T03:33:31.707Z,1.30
2018-04-01T03:35:58.778Z,1.30
2018-04-01T03:38:25.863Z,1.30
2018-04-01T03:40:52.977Z,1.30
2018-04-01T03:43:20.212Z,1.30
2018-04-01T03:45:47.288Z,1.30
2018-04-01T03:48:14.375Z,1.30
2018-04-01T03:50:41.509Z,1.30
2018-04-01T03:53:09.414Z,1.20
2018-04-01T03:55:36.491Z,1.30
2018-04-01T03:58:03.575Z,1.20
2018-04-01T04:00:30.746Z,1.30
2018-04-01T04:02:57.788Z,1.30
2018-04-01T04:05:25.678Z,1.20
2018-04-01T04:07:52.763Z,1.20
2018-04-01T04:10:19.858Z,1.20
2018-04-01T04:12:46.985Z,1.30
2018-04-01T04:15:14.122Z,1.20
2018-04-01T04:17:41.202Z,1.20
2018-04-01T04:20:09.095Z,1.20
2018-04-01T04:22:36.247Z,1.20
2018-04-01T04:25:03.322Z,1.20
2018-04-01T04:27:30.449Z,1.20
2018-04-01T04:29:57.536Z,1.20
2018-04-01T04:32:24.656Z,1.30
2018-04-01T04:34:51.900Z,1.20
2018-04-01T04:37:19.040Z,1.20
2018-04-01T04:39:46.158Z,1.20
2018-04-01T04:42:13.270Z,1.20
2018-04-01T04:44:40.391Z,1.20
2018-04-01T04:47:07.470Z,1.20
2018-04-01T04:49:34.582Z,1.20
2018-04-01T04:52:01.708Z,1.20
2018-04-01T04:54:29.819Z,1.20
2018-04-01T04:56:56.897Z,1.10
2018-04-01T04:59:24.028Z,1.10
2018-04-01T05:01:51.103Z,1.10
2018-04-01T05:04:18.222Z,1.10
2018-04-01T05:06:45.351Z,1.00
2018-04-01T05:09:12.462Z,1.00
2018-04-01T05:11:39.535Z,1.00
2018-04-01T05:14:07.496Z,1.00
2018-04-01T05:16:34.626Z,1.00
2018-04-01T05:19:01.795Z,1.00
2018-04-01T05:21:28.882Z,0.90
2018-04-01T05:23:56.020Z,0.90
2018-04-01T05:26:23.099Z,0.90
2018-04-01T05:28:50.215Z,0.90
2018-04-01T05:31:18.058Z,0.90
2018-04-01T05:33:45.172Z,0.90
2018-04-01T05:36:12.287Z,1.00
2018-04-01T05:38:39.405Z,1.00
2018-04-01T05:41:06.515Z,1.00
2018-04-01T05:43:33.595Z,1.00
2018-04-01T05:46:00.724Z,1.00
2018-04-01T05:48:27.802Z,1.10
2018-04-01T05:50:54.874Z,1.10
2018-04-01T05:53:22.778Z,1.20
2018-04-01T05:55:49.911Z,1.10
2018-04-01T05:58:17.026Z,1.20
2018-04-01T06:00:44.173Z,1.30
2018-04-01T06:03:11.258Z,1.30
2018-04-01T06:05:38.387Z,1.40
2018-04-01T06:08:06.274Z,1.50
2018-04-01T06:10:33.367Z,1.50
2018-04-01T06:13:00.487Z,1.50
2018-04-01T06:15:27.605Z,1.60
2018-04-01T06:17:55.447Z,1.70
2018-04-01T06:20:22.563Z,1.60
2018-04-01T06:22:49.638Z,1.70
2018-04-01T06:25:16.758Z,1.80
2018-04-01T06:27:43.831Z,1.80
2018-04-01T06:30:10.954Z,1.90
2018-04-01T06:32:38.035Z,1.90
2018-04-01T06:35:05.160Z,2.00
2018-04-01T06:37:32.255Z,2.00
2018-04-01T06:39:59.392Z,2.00
2018-04-01T06:42:26.475Z,2.00
2018-04-01T06:44:53.590Z,2.00
2018-04-01T06:47:20.708Z,2.00
2018-04-01T06:49:47.830Z,2.10
2018-04-01T06:52:14.951Z,2.10
2018-04-01T06:54:42.037Z,2.20
2018-04-01T06:57:09.196Z,2.20
2018-04-01T06:59:36.346Z,2.30
2018-04-01T07:02:03.458Z,2.30
2018-04-01T07:04:31.346Z,2.20
2018-04-01T07:06:58.461Z,2.20
2018-04-01T07:09:25.546Z,2.20
2018-04-01T07:11:52.694Z,2.20
2018-04-01T07:14:20.554Z,2.20
2018-04-01T07:16:47.638Z,2.20
2018-04-01T07:19:14.797Z,2.30
2018-04-01T07:21:41.869Z,2.30
2018-04-01T07:24:08.993Z,2.30
2018-04-01T07:26:36.105Z,2.30
2018-04-01T07:29:03.178Z,2.30
2018-04-01T07:31:30.294Z,2.40
2018-04-01T07:33:58.180Z,2.40
2018-04-01T07:36:26.018Z,2.40
2018-04-01T07:38:53.140Z,2.40
2018-04-01T07:41:20.223Z,2.40
2018-04-01T07:43:47.338Z,2.50
2018-04-01T07:46:14.431Z,2.50
2018-04-01T07:48:41.550Z,2.60
2018-04-01T07:51:08.663Z,2.60
2018-04-01T07:53:35.766Z,2.70
2018-04-01T07:56:02.853Z,2.70
2018-04-01T07:58:29.968Z,2.80
2018-04-01T08:00:57.043Z,2.90
2018-04-01T08:03:24.152Z,3.00
2018-04-01T08:05:51.278Z,3.10
2018-04-01T08:08:18.383Z,3.20
2018-04-01T08:10:46.222Z,3.40
2018-04-01T08:13:13.334Z,3.40
2018-04-01T08:15:40.407Z,3.50
2018-04-01T08:18:07.533Z,3.50
2018-04-01T08:20:34.619Z,3.60
2018-04-01T08:23:01.739Z,3.70
2018-04-01T08:25:28.809Z,3.70
2018-04-01T08:27:55.892Z,3.70
2018-04-01T08:30:23.769Z,3.60
2018-04-01T08:32:50.865Z,3.60
2018-04-01T08:35:17.991Z,3.60
2018-04-01T08:37:45.065Z,3.60
2018-04-01T08:40:12.327Z,3.70
2018-04-01T08:42:39.407Z,3.70
2018-04-01T08:45:07.298Z,3.70
2018-04-01T08:47:34.481Z,3.70
2018-04-01T08:50:01.555Z,3.70
2018-04-01T08:52:28.666Z,3.70
2018-04-01T08:54:55.760Z,3.70
2018-04-01T08:57:22.949Z,3.70
2018-04-01T08:59:50.070Z,3.80
2018-04-01T09:02:17.933Z,3.80
2018-04-01T09:04:45.049Z,3.80
2018-04-01T09:07:12.147Z,3.80
2018-04-01T09:09:40.038Z,3.90
2018-04-01T09:12:07.151Z,3.80
2018-04-01T09:14:34.257Z,3.90
2018-04-01T09:17:01.400Z,3.90
2018-04-01T09:19:28.487Z,4.00
2018-04-01T09:21:55.610Z,4.00
2018-04-01T09:24:22.693Z,4.00
2018-04-01T09:26:49.827Z,4.00
2018-04-01T09:29:16.950Z,4.10
2018-04-01T09:31:44.034Z,4.00
2018-04-01T09:34:11.162Z,4.10
2018-04-01T09:36:38.237Z,4.10
2018-04-01T09:39:05.366Z,4.20
2018-04-01T09:41:32.488Z,4.20
2018-04-01T09:43:59.615Z,4.30
2018-04-01T09:46:26.666Z,4.40
2018-04-01T09:48:53.787Z,4.40
2018-04-01T09:51:20.868Z,4.50
2018-04-01T09:53:48.760Z,4.60
2018-04-01T09:56:15.844Z,4.60
2018-04-01T09:58:42.959Z,4.60
2018-04-01T10:01:14.453Z,4.60
2018-04-01T10:03:42.066Z,4.60
2018-04-01T10:06:09.672Z,4.70
2018-04-01T10:08:37.246Z,4.80
2018-04-01T10:11:04.855Z,4.90
2018-04-01T10:13:32.426Z,5.00
2018-04-01T10:16:00.034Z,5.10
2018-04-01T10:18:27.596Z,5.20
2018-04-01T10:20:55.164Z,5.20
2018-04-01T10:23:22.777Z,5.30
2018-04-01T10:25:50.357Z,5.50
2018-04-01T10:28:17.967Z,5.60
2018-04-01T10:30:45.566Z,5.70
2018-04-01T10:33:13.187Z,5.70
2018-04-01T10:35:40.749Z,5.70
2018-04-01T10:38:08.324Z,5.70
2018-04-01T10:40:35.933Z,5.80
2018-04-01T10:43:03.502Z,5.90
2018-04-01T10:45:31.112Z,5.90
2018-04-01T10:47:58.720Z,5.90
2018-04-01T10:50:26.344Z,5.80
2018-04-01T10:52:53.918Z,5.90
2018-04-01T10:55:20.992Z,5.90
2018-04-01T10:57:48.115Z,6.00
2018-04-01T11:00:15.199Z,6.00
2018-04-01T11:02:42.316Z,6.00
2018-04-01T11:05:09.414Z,6.00
2018-04-01T11:07:37.309Z,6.00
2018-04-01T11:10:04.392Z,6.00
2018-04-01T11:12:31.522Z,6.00
2018-04-01T11:14:58.647Z,5.90
2018-04-01T11:17:25.772Z,6.00
2018-04-01T11:19:52.887Z,6.10
2018-04-01T11:22:20.783Z,6.40
2018-04-01T11:24:47.873Z,6.40
2018-04-01T11:27:14.958Z,6.50
2018-04-01T11:29:42.838Z,6.50
2018-04-01T11:32:09.922Z,6.50
2018-04-01T11:34:37.801Z,6.40
2018-04-01T11:37:04.874Z,6.40
2018-04-01T11:39:32.179Z,6.50
2018-04-01T11:42:00.071Z,6.70
2018-04-01T11:44:27.151Z,6.60
2018-04-01T11:46:54.362Z,6.70
2018-04-01T11:49:22.231Z,6.70
2018-04-01T11:51:50.074Z,6.70
2018-04-01T11:54:17.206Z,6.70
2018-04-01T11:56:44.364Z,6.70
2018-04-01T11:59:11.423Z,6.90
2018-04-01T12:01:38.543Z,6.90
2018-04-01T12:04:05.672Z,6.90
2018-04-01T12:06:32.747Z,7.00
2018-04-01T12:08:59.887Z,7.00
2018-04-01T12:11:26.971Z,7.00
2018-04-01T12:13:54.082Z,7.00
2018-04-01T12:16:21.204Z,6.90
2018-04-01T12:18:48.329Z,6.90
2018-04-01T12:21:16.172Z,7.10
2018-04-01T12:23:43.261Z,7.00
2018-04-01T12:26:11.150Z,7.30
2018-04-01T12:28:38.245Z,7.20
2018-04-01T12:31:05.363Z,7.30
2018-04-01T12:33:32.474Z,7.10
2018-04-01T12:36:02.690Z,6.60
2018-04-01T12:38:31.733Z,6.60
2018-04-01T12:40:59.493Z,6.60
2018-04-01T12:43:27.236Z,6.60
2018-04-01T12:45:55.711Z,6.60
2018-04-01T12:48:24.305Z,6.60
2018-04-01T12:50:53.438Z,6.60
2018-04-01T12:53:25.157Z,6.60
2018-04-01T12:55:57.176Z,6.60
2018-04-01T12:58:25.198Z,6.60
2018-04-01T13:00:54.492Z,6.60
2018-04-01T13:03:23.602Z,6.60
2018-04-01T13:05:51.836Z,6.70
2018-04-01T13:08:19.559Z,6.80
2018-04-01T13:10:47.301Z,7.00
2018-04-01T13:13:14.856Z,7.10
2018-04-01T13:15:43.595Z,7.10
2018-04-01T13:18:12.222Z,7.10
2018-04-01T13:20:42.258Z,7.30
2018-04-01T13:23:10.371Z,7.40
2018-04-01T13:25:39.353Z,7.60
2018-04-01T13:28:07.794Z,7.80
2018-04-01T13:30:35.992Z,7.80
2018-04-01T13:33:03.127Z,7.90
2018-04-01T13:35:30.202Z,8.00
2018-04-01T13:37:57.319Z,8.00
2018-04-01T13:40:24.394Z,8.00
2018-04-01T13:42:51.512Z,8.00
2018-04-01T13:45:18.587Z,7.90
2018-04-01T13:47:45.693Z,7.90
2018-04-01T13:50:13.561Z,8.00
2018-04-01T13:52:40.676Z,8.00
2018-04-01T13:55:07.788Z,8.00
2018-04-01T13:57:34.857Z,8.10
2018-04-01T14:00:01.968Z,8.10
2018-04-01T14:02:29.853Z,7.80
2018-04-01T14:04:56.919Z,7.80
2018-04-01T14:07:23.994Z,7.80
2018-04-01T14:09:51.125Z,7.60
2018-04-01T14:12:18.250Z,7.40
2018-04-01T14:14:45.329Z,7.30
2018-04-01T14:17:12.459Z,7.30
2018-04-01T14:19:39.576Z,7.30
2018-04-01T14:22:07.418Z,7.20
2018-04-01T14:24:34.528Z,7.20
2018-04-01T14:27:01.648Z,7.30
2018-04-01T14:29:29.496Z,7.90
2018-04-01T14:31:56.603Z,7.90
2018-04-01T14:34:23.708Z,8.10
2018-04-01T14:36:51.563Z,8.30
2018-04-01T14:39:18.709Z,8.30
2018-04-01T14:41:45.790Z,7.90
2018-04-01T14:44:12.898Z,7.60
2018-04-01T14:46:39.966Z,7.50
2018-04-01T14:49:07.124Z,7.40
2018-04-01T14:51:34.219Z,7.50
2018-04-01T14:54:01.388Z,7.70
2018-04-01T14:56:28.471Z,7.80
2018-04-01T14:58:55.550Z,7.50
2018-04-01T15:01:22.655Z,7.50
2018-04-01T15:03:49.730Z,7.70
2018-04-01T15:06:17.610Z,7.90
2018-04-01T15:08:44.690Z,8.00
2018-04-01T15:11:11.800Z,7.80
2018-04-01T15:13:39.674Z,7.10
2018-04-01T15:16:06.751Z,7.10
2018-04-01T15:18:33.873Z,7.40
2018-04-01T15:21:00.980Z,7.80
2018-04-01T15:23:28.090Z,8.10
2018-04-01T15:25:55.164Z,8.30
2018-04-01T15:28:22.331Z,8.60
2018-04-01T15:30:49.411Z,8.60
2018-04-01T15:33:19.364Z,8.50
2018-04-01T15:35:48.786Z,8.50
2018-04-01T15:38:16.665Z,8.00
2018-04-01T15:40:43.745Z,8.00
2018-04-01T15:43:11.623Z,7.60
2018-04-01T15:45:38.701Z,7.60
2018-04-01T15:48:06.039Z,7.50
2018-04-01T15:50:33.185Z,7.40
2018-04-01T15:53:00.329Z,7.50
2018-04-01T15:55:28.041Z,7.60
2018-04-01T15:57:55.627Z,7.60
2018-04-01T16:00:22.984Z,7.60
2018-04-01T16:02:50.149Z,7.50
2018-04-01T16:05:17.247Z,7.60
2018-04-01T16:07:44.399Z,7.50
2018-04-01T16:10:11.479Z,7.40
2018-04-01T16:12:38.982Z,7.30
2018-04-01T16:15:06.211Z,7.30
2018-04-01T16:17:34.095Z,7.30
2018-04-01T16:20:01.472Z,7.30
2018-04-01T16:22:28.645Z,7.00
2018-04-01T16:24:55.742Z,6.70
2018-04-01T16:27:23.170Z,6.40
2018-04-01T16:29:50.325Z,6.00
2018-04-01T16:32:17.405Z,5.70
2018-04-01T16:34:44.558Z,5.40
2018-04-01T16:37:11.640Z,5.30
2018-04-01T16:39:38.764Z,5.30
2018-04-01T16:42:05.884Z,5.20
2018-04-01T16:44:33.195Z,5.20
2018-04-01T16:47:00.283Z,5.20
2018-04-01T16:49:28.274Z,5.30
2018-04-01T16:51:56.276Z,5.30
2018-04-01T16:54:23.363Z,5.20
2018-04-01T16:56:50.502Z,5.20
2018-04-01T16:59:17.583Z,5.20
2018-04-01T17:01:45.522Z,5.10
2018-04-01T17:04:12.628Z,5.10
2018-04-01T17:06:39.706Z,5.10
2018-04-01T17:09:06.845Z,5.00
2018-04-01T17:11:33.922Z,5.00
2018-04-01T17:14:01.105Z,4.90
2018-04-01T17:16:28.960Z,4.90
2018-04-01T17:18:56.040Z,4.90
2018-04-01T17:21:23.220Z,4.90
2018-04-01T17:23:50.266Z,4.90
2018-04-01T17:26:17.387Z,4.90
2018-04-01T17:28:44.463Z,4.80
2018-04-01T17:31:11.606Z,4.80
2018-04-01T17:33:38.709Z,4.80
2018-04-01T17:36:06.592Z,4.70
2018-04-01T17:38:34.466Z,4.70
2018-04-01T17:41:01.544Z,4.70
2018-04-01T17:43:28.668Z,4.80
2018-04-01T17:45:55.778Z,4.70
2018-04-01T17:48:22.938Z,4.70
2018-04-01T17:50:50.069Z,4.60
2018-04-01T17:53:17.206Z,4.60
2018-04-01T17:55:44.404Z,4.50
2018-04-01T17:58:11.523Z,4.40
2018-04-01T18:00:38.611Z,4.40
2018-04-01T18:03:05.736Z,4.40
2018-04-01T18:05:32.822Z,4.40
2018-04-01T18:07:59.937Z,4.30
2018-04-01T18:10:27.034Z,4.30
2018-04-01T18:12:54.146Z,4.30
2018-04-01T18:15:21.756Z,4.20
2018-04-01T18:17:48.872Z,4.20
2018-04-01T18:20:15.982Z,4.10
2018-04-01T18:22:43.103Z,3.90
2018-04-01T18:25:10.226Z,3.70
2018-04-01T18:27:37.301Z,3.60
2018-04-01T18:30:04.471Z,3.40
2018-04-01T18:32:31.639Z,3.30
2018-04-01T18:34:58.755Z,3.30
2018-04-01T18:37:25.881Z,3.20
2018-04-01T18:39:52.979Z,3.10
2018-04-01T18:42:20.115Z,3.00
2018-04-01T18:44:47.206Z,2.90
2018-04-01T18:47:15.121Z,2.80
2018-04-01T18:49:42.239Z,2.80
2018-04-01T18:52:10.132Z,2.80
2018-04-01T18:54:37.211Z,2.70
2018-04-01T18:57:04.336Z,2.80
2018-04-01T18:59:31.467Z,2.90
2018-04-01T19:01:58.551Z,2.90
2018-04-01T19:04:25.687Z,2.90
2018-04-01T19:06:52.793Z,3.00
2018-04-01T19:09:20.639Z,3.00
2018-04-01T19:11:47.775Z,3.00
2018-04-01T19:14:14.897Z,3.00
2018-04-01T19:16:54.178Z,3.10
2018-04-01T19:19:21.807Z,3.10
2018-04-01T19:21:49.373Z,3.10
2018-04-01T19:24:17.776Z,3.10
2018-04-01T19:26:45.383Z,3.20
2018-04-01T19:29:13.003Z,3.30
2018-04-01T19:31:40.610Z,3.30
2018-04-01T19:34:08.218Z,3.30
2018-04-01T19:36:35.815Z,3.20
2018-04-01T19:39:04.187Z,3.10
2018-04-01T19:41:32.535Z,3.10
2018-04-01T19:44:00.152Z,3.10
2018-04-01T19:46:27.738Z,3.00
2018-04-01T19:48:55.355Z,2.90
2018-04-01T19:51:22.937Z,2.80
2018-04-01T19:53:50.552Z,2.70
2018-04-01T19:56:18.182Z,2.70
2018-04-01T19:58:45.804Z,2.70
2018-04-01T20:01:13.434Z,2.60
2018-04-01T20:03:41.038Z,2.50
2018-04-01T20:06:08.620Z,2.40
2018-04-01T20:08:36.233Z,2.30
2018-04-01T20:11:03.797Z,2.20
2018-04-01T20:13:31.409Z,2.20
2018-04-01T20:15:59.029Z,2.20
2018-04-01T20:18:26.641Z,2.10
2018-04-01T20:20:54.244Z,2.00
2018-04-01T20:23:21.844Z,2.00
2018-04-01T20:25:49.413Z,2.00
2018-04-01T20:28:17.031Z,2.00
2018-04-01T20:30:45.382Z,1.80
2018-04-01T20:33:12.954Z,1.80
2018-04-01T20:35:40.566Z,1.70
2018-04-01T20:38:08.214Z,1.70
2018-04-01T20:40:35.841Z,1.60
2018-04-01T20:43:03.446Z,1.60
2018-04-01T20:45:31.026Z,1.60
2018-04-01T20:47:58.643Z,1.50
2018-04-01T20:50:26.251Z,1.40
2018-04-01T20:52:53.862Z,1.40
2018-04-01T20:55:21.425Z,1.40
2018-04-01T20:57:49.036Z,1.40
2018-04-01T21:00:16.611Z,1.40
2018-04-01T21:02:44.216Z,1.30
2018-04-01T21:05:12.587Z,1.20
2018-04-01T21:07:40.922Z,1.00
2018-04-01T21:10:08.536Z,1.00
2018-04-01T21:12:36.146Z,0.90
2018-04-01T21:15:03.717Z,0.90
2018-04-01T21:17:31.331Z,0.80
2018-04-01T21:19:58.894Z,0.80
2018-04-01T21:22:26.514Z,0.90
2018-04-01T21:24:54.085Z,0.90
2018-04-01T21:27:22.428Z,0.90
2018-04-01T21:29:50.118Z,0.90
2018-04-01T21:32:17.687Z,0.90
2018-04-01T21:34:46.064Z,0.90
2018-04-01T21:37:13.690Z,0.90
2018-04-01T21:39:41.263Z,0.80
2018-04-01T21:42:08.888Z,0.80
2018-04-01T21:44:36.550Z,0.70
2018-04-01T21:47:04.534Z,0.70
2018-04-01T21:49:32.347Z,0.60
2018-04-01T21:51:59.969Z,0.60
2018-04-01T21:54:28.343Z,0.50
2018-04-01T21:56:56.019Z,0.50
2018-04-01T21:59:23.873Z,0.50
2018-04-01T22:01:51.529Z,0.50
2018-04-01T22:04:19.143Z,0.50
2018-04-01T22:06:47.044Z,0.50
2018-04-01T22:09:14.648Z,0.50
2018-04-01T22:11:42.259Z,0.40
2018-04-01T22:14:09.843Z,0.50
2018-04-01T22:16:37.616Z,0.40
2018-04-01T22:19:05.227Z,0.40
2018-04-01T22:21:33.757Z,0.20
2018-04-01T22:24:01.834Z,0.20
2018-04-01T22:26:29.481Z,0.20
2018-04-01T22:28:57.690Z,0.20
2018-04-01T22:31:25.322Z,0.10
2018-04-01T22:33:52.893Z,0.20
2018-04-01T22:36:20.522Z,0.20
2018-04-01T22:38:48.877Z,0.10
2018-04-01T22:41:17.330Z,0.10
2018-04-01T22:43:45.108Z,0.10
2018-04-01T22:46:12.682Z,0.10
2018-04-01T22:48:40.542Z,0.10
2018-04-01T22:51:08.197Z,0.10
2018-04-01T22:53:36.882Z,0.10
2018-04-01T22:56:04.681Z,0.20
2018-04-01T22:58:32.397Z,0.20
2018-04-01T23:00:59.974Z,0.30
2018-04-01T23:03:27.602Z,0.40
2018-04-01T23:05:55.258Z,0.40
2018-04-01T23:08:22.912Z,0.40
2018-04-01T23:10:50.487Z,0.40
2018-04-01T23:13:18.099Z,0.30
2018-04-01T23:15:45.929Z,0.40
2018-04-01T23:18:13.561Z,0.30
2018-04-01T23:20:41.150Z,0.30
2018-04-01T23:23:08.761Z,0.40
2018-04-01T23:25:36.349Z,0.40
2018-04-01T23:28:03.982Z,0.50
2018-04-01T23:30:31.562Z,0.50
2018-04-01T23:33:00.470Z,0.60
2018-04-01T23:35:28.048Z,0.60
2018-04-01T23:37:57.966Z,0.60
2018-04-01T23:40:26.399Z,0.70
2018-04-01T23:42:54.782Z,0.80
2018-04-01T23:45:23.133Z,0.80
2018-04-01T23:47:50.754Z,0.80
2018-04-01T23:50:18.370Z,0.90
2018-04-01T23:52:46.748Z,0.90
2018-04-01T23:55:14.361Z,0.90
2018-04-01T23:57:41.935Z,0.90
